createdAt,value
2017-08-19T00:01:50.696Z,78.90
2017-08-19T00:04:52.216Z,78.80
2017-08-19T00:07:53.621Z,78.60
2017-08-19T00:10:55.003Z,78.90
2017-08-19T00:13:56.404Z,79.10
2017-08-19T00:16:57.795Z,78.20
2017-08-19T00:19:59.584Z,79.10
2017-08-19T00:23:01.517Z,79.00
2017-08-19T00:26:04.221Z,79.10
2017-08-19T00:29:06.727Z,79.00
2017-08-19T00:32:08.499Z,78.60
2017-08-19T00:35:09.964Z,78.10
2017-08-19T00:38:11.351Z,77.80
2017-08-19T00:41:12.822Z,79.00
2017-08-19T00:44:14.274Z,78.60
2017-08-19T00:47:15.654Z,78.70
2017-08-19T00:50:17.142Z,78.80
2017-08-19T00:53:18.576Z,78.10
2017-08-19T00:56:20.038Z,77.60
2017-08-19T00:59:21.404Z,77.30
2017-08-19T01:02:22.881Z,77.70
2017-08-19T01:05:24.414Z,78.60
2017-08-19T01:08:25.877Z,77.80
2017-08-19T01:11:27.405Z,78.60
2017-08-19T01:14:28.857Z,78.40
2017-08-19T01:17:30.230Z,77.70
2017-08-19T01:20:31.679Z,77.70
2017-08-19T01:23:33.152Z,77.70
2017-08-19T01:26:53.167Z,77.90
2017-08-19T01:29:55.303Z,77.60
2017-08-19T01:32:56.696Z,77.50
2017-08-19T01:35:58.105Z,77.80
2017-08-19T01:38:59.479Z,77.80
2017-08-19T01:42:01.582Z,77.30
2017-08-19T01:45:02.990Z,76.70
2017-08-19T01:48:05.158Z,77.50
2017-08-19T01:51:06.599Z,76.70
2017-08-19T01:54:08.024Z,76.30
2017-08-19T01:57:09.419Z,77.10
2017-08-19T02:00:11.566Z,77.20
2017-08-19T02:03:12.971Z,77.00
2017-08-19T02:06:14.426Z,77.10
2017-08-19T02:09:15.798Z,77.80
2017-08-19T02:12:17.197Z,78.00
2017-08-19T02:15:19.315Z,76.50
2017-08-19T02:18:20.777Z,76.40
2017-08-19T02:21:22.196Z,77.00
2017-08-19T02:24:23.633Z,76.70
2017-08-19T02:27:25.764Z,75.30
2017-08-19T02:30:27.139Z,75.10
2017-08-19T02:33:29.293Z,76.70
2017-08-19T02:36:30.672Z,76.60
2017-08-19T02:39:32.814Z,76.90
2017-08-19T02:42:34.225Z,76.80
2017-08-19T02:45:35.562Z,76.60
2017-08-19T02:48:36.956Z,77.50
2017-08-19T02:51:38.376Z,77.10
2017-08-19T02:54:39.704Z,76.80
2017-08-19T02:57:41.081Z,76.30
2017-08-19T03:00:42.448Z,75.50
2017-08-19T03:03:43.845Z,76.10
2017-08-19T03:06:45.969Z,77.70
2017-08-19T03:09:47.345Z,77.60
2017-08-19T03:12:48.760Z,76.60
2017-08-19T03:15:50.161Z,76.40
2017-08-19T03:18:52.303Z,77.00
2017-08-19T03:21:53.706Z,76.70
2017-08-19T03:24:55.061Z,75.80
2017-08-19T03:27:56.436Z,75.90
2017-08-19T03:30:57.790Z,76.40
2017-08-19T03:33:59.173Z,76.60
2017-08-19T03:37:01.314Z,77.20
2017-08-19T03:40:02.704Z,77.10
2017-08-19T03:43:04.841Z,76.80
2017-08-19T03:46:06.245Z,76.80
2017-08-19T03:49:07.607Z,77.10
2017-08-19T03:52:08.982Z,77.20
2017-08-19T03:55:10.363Z,76.90
2017-08-19T03:58:11.757Z,77.00
2017-08-19T04:01:13.202Z,77.80
2017-08-19T04:04:14.576Z,77.20
2017-08-19T04:07:16.010Z,78.10
2017-08-19T04:10:17.456Z,77.60
2017-08-19T04:13:18.826Z,77.70
2017-08-19T04:16:20.163Z,78.50
2017-08-19T04:19:21.617Z,77.30
2017-08-19T04:22:22.976Z,77.60
2017-08-19T04:25:24.343Z,78.50
2017-08-19T04:28:25.752Z,77.80
2017-08-19T04:31:27.149Z,77.50
2017-08-19T04:34:28.547Z,77.60
2017-08-19T04:37:30.656Z,77.80
2017-08-19T04:40:32.039Z,77.80
2017-08-19T04:43:33.449Z,77.60
2017-08-19T04:46:34.841Z,76.50
2017-08-19T04:49:36.212Z,76.60
2017-08-19T04:52:38.354Z,76.60
2017-08-19T04:55:39.698Z,76.50
2017-08-19T04:58:41.148Z,76.70
2017-08-19T05:01:42.549Z,76.80
2017-08-19T05:04:43.962Z,76.70
2017-08-19T05:07:45.390Z,77.00
2017-08-19T05:10:46.759Z,77.10
2017-08-19T05:13:48.132Z,77.40
2017-08-19T05:16:50.241Z,76.80
2017-08-19T05:19:51.641Z,77.30
2017-08-19T05:22:53.044Z,77.20
2017-08-19T05:25:54.433Z,77.50
2017-08-19T05:28:55.865Z,77.90
2017-08-19T05:31:57.253Z,78.20
2017-08-19T05:34:58.673Z,77.60
2017-08-19T05:38:00.027Z,77.40
2017-08-19T05:41:01.439Z,77.90
2017-08-19T05:44:02.838Z,77.40
2017-08-19T05:47:04.239Z,77.10
2017-08-19T05:50:05.606Z,78.00
2017-08-19T05:53:06.945Z,77.70
2017-08-19T05:56:08.286Z,76.80
2017-08-19T05:59:09.650Z,77.90
2017-08-19T06:02:11.055Z,77.20
2017-08-19T06:05:12.435Z,77.00
2017-08-19T06:08:13.803Z,77.10
2017-08-19T06:11:15.192Z,77.00
2017-08-19T06:14:16.589Z,77.80
2017-08-19T06:17:17.998Z,77.60
2017-08-19T06:20:19.436Z,77.30
2017-08-19T06:23:20.782Z,77.90
2017-08-19T06:26:22.159Z,78.10
2017-08-19T06:29:23.468Z,76.40
2017-08-19T06:32:24.826Z,77.90
2017-08-19T06:35:26.166Z,76.60
2017-08-19T06:38:27.498Z,76.40
2017-08-19T06:41:28.866Z,76.50
2017-08-19T06:44:30.256Z,76.00
2017-08-19T06:47:31.668Z,76.20
2017-08-19T06:50:33.077Z,75.90
2017-08-19T06:53:35.217Z,76.30
2017-08-19T06:56:36.614Z,75.70
2017-08-19T06:59:37.947Z,74.40
2017-08-19T07:02:40.113Z,76.70
2017-08-19T07:05:41.451Z,76.00
2017-08-19T07:08:42.845Z,75.40
2017-08-19T07:11:44.247Z,75.30
2017-08-19T07:14:45.589Z,75.40
2017-08-19T07:17:47.016Z,74.50
2017-08-19T07:20:48.369Z,75.00
2017-08-19T07:23:49.772Z,74.50
2017-08-19T07:26:51.851Z,74.30
2017-08-19T07:29:53.977Z,74.10
2017-08-19T07:32:55.349Z,74.10
2017-08-19T07:35:56.710Z,74.00
2017-08-19T07:38:58.840Z,73.60
2017-08-19T07:42:00.211Z,73.60
2017-08-19T07:45:01.545Z,73.30
2017-08-19T07:48:02.968Z,73.50
2017-08-19T07:51:04.311Z,74.10
2017-08-19T07:54:05.687Z,73.40
2017-08-19T07:57:07.088Z,73.70
2017-08-19T08:00:09.191Z,73.00
2017-08-19T08:03:10.563Z,73.00
2017-08-19T08:06:11.922Z,73.10
2017-08-19T08:09:13.291Z,73.00
2017-08-19T08:12:14.648Z,73.50
2017-08-19T08:15:16.021Z,73.30
2017-08-19T08:18:17.382Z,73.30
2017-08-19T08:21:18.764Z,74.10
2017-08-19T08:24:20.149Z,74.60
2017-08-19T08:27:21.533Z,73.00
2017-08-19T08:30:22.891Z,73.90
2017-08-19T08:33:24.284Z,74.50
2017-08-19T08:36:25.636Z,74.20
2017-08-19T08:39:27.054Z,74.50
2017-08-19T08:42:28.417Z,74.10
2017-08-19T08:45:29.837Z,73.70
2017-08-19T08:48:31.472Z,74.00
2017-08-19T08:51:33.637Z,75.00
2017-08-19T08:54:35.778Z,75.60
2017-08-19T08:57:37.182Z,75.40
2017-08-19T09:00:38.757Z,76.00
2017-08-19T09:03:40.120Z,77.30
2017-08-19T09:06:41.493Z,76.90
2017-08-19T09:09:42.884Z,77.00
2017-08-19T09:12:44.321Z,76.10
2017-08-19T09:15:46.407Z,76.30
2017-08-19T09:18:47.801Z,76.30
2017-08-19T09:21:49.341Z,76.40
2017-08-19T09:24:50.701Z,76.50
2017-08-19T09:27:52.291Z,76.40
2017-08-19T09:30:53.741Z,75.20
2017-08-19T09:33:55.121Z,73.10
2017-08-19T09:36:56.438Z,75.10
2017-08-19T09:39:57.833Z,72.50
2017-08-19T09:42:59.191Z,71.50
2017-08-19T09:46:00.572Z,71.80
2017-08-19T09:49:01.888Z,71.40
2017-08-19T09:52:03.331Z,71.20
2017-08-19T09:55:04.723Z,72.20
2017-08-19T09:58:06.095Z,73.40
2017-08-19T10:01:07.492Z,73.20
2017-08-19T10:04:08.905Z,74.30
2017-08-19T10:07:11.041Z,72.70
2017-08-19T10:10:30.971Z,72.10
2017-08-19T10:13:32.347Z,72.90
2017-08-19T10:16:33.713Z,72.40
2017-08-19T10:19:35.158Z,70.70
2017-08-19T10:22:36.734Z,71.50
2017-08-19T10:25:38.080Z,70.90
2017-08-19T10:28:39.444Z,70.90
2017-08-19T10:31:40.780Z,69.60
2017-08-19T10:34:42.176Z,70.10
2017-08-19T10:37:44.275Z,68.90
2017-08-19T10:40:45.679Z,68.80
2017-08-19T10:43:47.041Z,69.20
2017-08-19T10:46:49.170Z,69.20
2017-08-19T10:49:50.663Z,69.10
2017-08-19T10:52:52.028Z,68.90
2017-08-19T10:55:54.148Z,68.90
2017-08-19T10:58:55.454Z,68.90
2017-08-19T11:01:56.825Z,69.50
2017-08-19T11:04:58.179Z,69.90
2017-08-19T11:07:59.578Z,70.40
2017-08-19T11:11:01.078Z,66.10
2017-08-19T11:14:02.441Z,65.80
2017-08-19T11:17:03.911Z,64.70
2017-08-19T11:20:05.231Z,66.00
2017-08-19T11:23:06.641Z,63.70
2017-08-19T11:26:08.760Z,62.20
2017-08-19T11:29:10.137Z,62.20
2017-08-19T11:32:11.498Z,61.50
2017-08-19T11:35:12.892Z,66.30
2017-08-19T11:38:14.380Z,64.40
2017-08-19T11:41:15.736Z,61.00
2017-08-19T11:44:17.103Z,63.50
2017-08-19T11:47:18.493Z,61.50
2017-08-19T11:50:19.913Z,63.20
2017-08-19T11:53:21.299Z,63.90
2017-08-19T11:56:22.675Z,62.80
2017-08-19T11:59:24.155Z,62.40
2017-08-19T12:02:25.527Z,62.80
2017-08-19T12:05:27.683Z,62.80
2017-08-19T12:08:29.034Z,62.80
2017-08-19T12:11:30.416Z,63.40
2017-08-19T12:14:31.783Z,59.30
2017-08-19T12:17:33.195Z,62.00
2017-08-19T12:20:35.309Z,61.80
2017-08-19T12:23:36.698Z,61.90
2017-08-19T12:26:38.167Z,60.40
2017-08-19T12:29:40.343Z,60.20
2017-08-19T12:32:42.508Z,59.10
2017-08-19T12:35:44.610Z,59.80
2017-08-19T12:38:45.967Z,59.80
2017-08-19T12:41:47.324Z,60.90
2017-08-19T12:44:48.680Z,62.30
2017-08-19T12:47:50.043Z,60.50
2017-08-19T12:50:51.443Z,61.00
2017-08-19T12:53:52.851Z,61.50
2017-08-19T12:56:54.254Z,61.50
2017-08-19T12:59:55.891Z,60.80
2017-08-19T13:03:04.805Z,62.70
2017-08-19T13:06:06.193Z,62.70
2017-08-19T13:09:07.547Z,63.30
2017-08-19T13:12:08.936Z,62.30
2017-08-19T13:15:10.321Z,62.90
2017-08-19T13:18:12.449Z,59.80
2017-08-19T13:21:13.792Z,59.70
2017-08-19T13:24:15.169Z,60.80
2017-08-19T13:27:16.512Z,61.30
2017-08-19T13:30:17.926Z,61.90
2017-08-19T13:33:19.325Z,59.80
2017-08-19T13:36:20.753Z,62.40
2017-08-19T13:39:22.110Z,61.30
2017-08-19T13:42:23.497Z,63.60
2017-08-19T13:45:25.629Z,62.90
2017-08-19T13:48:27.027Z,62.90
2017-08-19T13:51:29.490Z,62.60
2017-08-19T13:54:31.639Z,63.40
2017-08-19T13:57:33.117Z,63.20
2017-08-19T14:00:35.193Z,63.50
2017-08-19T14:03:36.596Z,63.50
2017-08-19T14:06:37.954Z,62.40
2017-08-19T14:09:39.361Z,63.20
2017-08-19T14:12:40.751Z,63.60
2017-08-19T14:15:42.114Z,63.10
2017-08-19T14:18:43.776Z,63.60
2017-08-19T14:21:45.116Z,64.20
2017-08-19T14:24:46.487Z,62.70
2017-08-19T14:27:48.575Z,66.40
2017-08-19T14:30:56.944Z,66.30
2017-08-19T14:33:58.292Z,64.40
2017-08-19T14:36:59.684Z,63.40
2017-08-19T14:40:01.769Z,61.10
2017-08-19T14:43:03.191Z,61.00
2017-08-19T14:46:05.297Z,62.00
2017-08-19T14:49:06.713Z,61.70
2017-08-19T14:52:08.832Z,63.80
2017-08-19T14:55:10.252Z,63.30
2017-08-19T14:58:11.722Z,67.30
2017-08-19T15:01:13.074Z,70.80
2017-08-19T15:04:14.468Z,71.40
2017-08-19T15:07:15.845Z,72.30
2017-08-19T15:10:17.984Z,71.60
2017-08-19T15:13:19.337Z,71.60
2017-08-19T15:16:20.734Z,74.30
2017-08-19T15:19:22.401Z,74.00
2017-08-19T15:22:23.781Z,72.80
2017-08-19T15:25:25.132Z,72.20
2017-08-19T15:28:26.517Z,72.20
2017-08-19T15:31:27.958Z,72.10
2017-08-19T15:34:29.325Z,74.00
2017-08-19T15:37:31.475Z,75.30
2017-08-19T15:40:32.824Z,75.20
2017-08-19T15:43:34.207Z,74.30
2017-08-19T15:46:35.715Z,77.30
2017-08-19T15:49:37.097Z,77.70
2017-08-19T15:52:38.465Z,80.10
2017-08-19T15:55:39.858Z,80.30
2017-08-19T15:58:41.220Z,82.70
2017-08-19T16:01:42.557Z,82.90
2017-08-19T16:04:43.950Z,82.40
2017-08-19T16:07:46.066Z,82.30
2017-08-19T16:10:47.443Z,82.30
2017-08-19T16:13:48.914Z,81.90
2017-08-19T16:16:50.278Z,81.70
2017-08-19T16:19:51.648Z,81.30
2017-08-19T16:22:52.984Z,81.20
2017-08-19T16:25:54.349Z,81.30
2017-08-19T16:28:55.678Z,81.50
2017-08-19T16:31:57.049Z,81.50
2017-08-19T16:34:58.621Z,81.00
2017-08-19T16:38:00.003Z,81.80
2017-08-19T16:41:01.372Z,81.90
2017-08-19T16:44:02.740Z,80.20
2017-08-19T16:47:04.208Z,80.70
2017-08-19T16:50:05.573Z,80.10
2017-08-19T16:53:07.712Z,82.20
2017-08-19T16:56:09.061Z,82.20
2017-08-19T16:59:10.573Z,81.80
2017-08-19T17:02:11.944Z,81.80
2017-08-19T17:05:13.337Z,82.10
2017-08-19T17:08:15.398Z,82.20
2017-08-19T17:11:16.928Z,82.30
2017-08-19T17:14:18.275Z,81.30
2017-08-19T17:17:19.628Z,80.50
2017-08-19T17:20:20.988Z,81.00
2017-08-19T17:23:22.376Z,81.80
2017-08-19T17:26:24.470Z,82.80
2017-08-19T17:29:25.836Z,82.80
2017-08-19T17:32:27.207Z,82.70
2017-08-19T17:35:28.552Z,82.40
2017-08-19T17:38:29.938Z,82.30
2017-08-19T17:41:32.025Z,82.90
2017-08-19T17:44:33.407Z,82.90
2017-08-19T17:47:34.806Z,82.00
2017-08-19T17:50:36.927Z,83.00
2017-08-19T17:53:38.307Z,82.90
2017-08-19T17:56:39.728Z,82.20
2017-08-19T17:59:41.080Z,82.70
2017-08-19T18:02:42.473Z,82.80
2017-08-19T18:05:43.829Z,82.70
2017-08-19T18:08:45.226Z,82.70
2017-08-19T18:11:46.841Z,82.30
2017-08-19T18:14:48.935Z,81.90
2017-08-19T18:17:50.435Z,81.90
2017-08-19T18:20:51.796Z,81.30
2017-08-19T18:23:53.157Z,81.30
2017-08-19T18:26:55.267Z,82.90
2017-08-19T18:29:56.660Z,82.20
2017-08-19T18:32:58.050Z,81.80
2017-08-19T18:35:59.417Z,81.50
2017-08-19T18:39:00.979Z,81.80
2017-08-19T18:42:02.320Z,81.90
2017-08-19T18:45:03.696Z,82.00
2017-08-19T18:48:05.016Z,81.40
2017-08-19T18:51:06.361Z,82.20
2017-08-19T18:54:07.723Z,81.90
2017-08-19T18:57:09.112Z,80.00
2017-08-19T19:00:10.485Z,81.20
2017-08-19T19:03:12.611Z,81.60
2017-08-19T19:06:14.109Z,81.50
2017-08-19T19:09:15.460Z,80.50
2017-08-19T19:12:17.832Z,80.90
2017-08-19T19:15:19.944Z,80.80
2017-08-19T19:18:21.383Z,80.60
2017-08-19T19:21:22.743Z,81.40
2017-08-19T19:24:24.150Z,81.10
2017-08-19T19:27:25.712Z,81.10
2017-08-19T19:30:27.180Z,81.30
2017-08-19T19:33:28.657Z,80.90
2017-08-19T19:36:30.054Z,81.40
2017-08-19T19:39:32.233Z,80.60
2017-08-19T19:42:33.617Z,80.60
2017-08-19T19:45:35.020Z,80.80
2017-08-19T19:48:36.400Z,81.20
2017-08-19T19:51:37.853Z,80.90
2017-08-19T19:54:39.282Z,80.20
2017-08-19T19:57:40.679Z,81.20
2017-08-19T20:00:42.814Z,79.90
2017-08-19T20:03:44.183Z,79.80
2017-08-19T20:06:45.649Z,79.30
2017-08-19T20:09:47.804Z,80.00
2017-08-19T20:12:49.225Z,79.10
2017-08-19T20:15:50.676Z,79.70
2017-08-19T20:18:52.159Z,79.30
2017-08-19T20:21:53.573Z,79.70
2017-08-19T20:24:55.050Z,80.20
2017-08-19T20:27:56.543Z,80.00
2017-08-19T20:30:57.989Z,79.90
2017-08-19T20:33:59.447Z,79.70
2017-08-19T20:37:00.901Z,79.60
2017-08-19T20:40:03.081Z,78.60
2017-08-19T20:43:04.494Z,78.50
2017-08-19T20:46:05.973Z,78.40
2017-08-19T20:49:08.119Z,78.90
2017-08-19T20:52:09.500Z,78.80
2017-08-19T20:55:10.904Z,79.20
2017-08-19T20:58:12.425Z,79.10
2017-08-19T21:01:13.868Z,79.00
2017-08-19T21:04:15.416Z,79.40
2017-08-19T21:07:17.623Z,79.40
2017-08-19T21:10:19.136Z,79.30
2017-08-19T21:13:20.635Z,80.00
2017-08-19T21:16:22.197Z,79.80
2017-08-19T21:19:23.647Z,80.20
2017-08-19T21:22:25.117Z,80.00
2017-08-19T21:25:26.647Z,79.30
2017-08-19T21:28:28.213Z,79.80
2017-08-19T21:31:29.586Z,80.30
2017-08-19T21:34:30.991Z,81.60
2017-08-19T21:37:32.409Z,81.00
2017-08-19T21:40:33.857Z,80.30
2017-08-19T21:46:44.266Z,80.60
2017-08-19T21:49:45.637Z,81.50
2017-08-19T21:52:47.056Z,80.60
2017-08-19T21:55:48.497Z,80.70
2017-08-19T21:58:50.654Z,80.70
2017-08-19T22:01:52.860Z,80.70
2017-08-19T22:04:54.208Z,80.60
2017-08-19T22:07:55.630Z,80.20
2017-08-19T22:10:57.782Z,80.20
2017-08-19T22:13:59.205Z,80.10
2017-08-19T22:17:00.636Z,79.70
2017-08-19T22:20:02.088Z,79.60
2017-08-19T22:23:03.492Z,80.30
2017-08-19T22:26:04.926Z,80.50
2017-08-19T22:29:06.347Z,80.50
2017-08-19T22:32:07.693Z,79.80
2017-08-19T22:35:09.129Z,79.90
2017-08-19T22:38:11.265Z,79.80
2017-08-19T22:41:12.732Z,79.80
2017-08-19T22:44:14.878Z,80.30
2017-08-19T22:47:16.328Z,79.70
2017-08-19T22:50:17.740Z,79.80
2017-08-19T22:53:19.143Z,80.10
2017-08-19T22:56:20.629Z,79.50
2017-08-19T22:59:21.997Z,79.80
2017-08-19T23:02:23.415Z,80.20
2017-08-19T23:05:24.794Z,79.40
2017-08-19T23:08:26.193Z,80.50
2017-08-19T23:11:27.682Z,79.80
2017-08-19T23:14:29.817Z,80.50
2017-08-19T23:17:31.239Z,80.40
2017-08-19T23:20:32.625Z,80.80
2017-08-19T23:23:34.024Z,80.90
2017-08-19T23:26:35.405Z,80.70
2017-08-19T23:29:36.833Z,80.00
2017-08-19T23:32:38.203Z,80.20
2017-08-19T23:35:39.608Z,80.50
2017-08-19T23:38:41.736Z,79.50
2017-08-19T23:41:43.074Z,79.50
2017-08-19T23:44:44.452Z,80.70
2017-08-19T23:47:45.839Z,79.80
2017-08-19T23:50:47.244Z,79.70
2017-08-19T23:53:48.590Z,80.10
2017-08-19T23:56:49.976Z,79.50
2017-08-19T23:59:52.100Z,79.30
